A- A+ FrançaisEnglishEspañol中国

最近的 MMGM GuaymasLFMP Perpignan-RivesalterEGGW London LutonWMKJ Johor BahruLFBT Tarbes-Lourdes-PyrénéesLFBO Toulouse-Blagnac

飞行员的航空天气,使用METAR(气象机场报告)进行的飞行准备和TAF(终端机场预报:针对以下情况的短期天气预报)航空)。 以及其他资源,例如VAC(目视进近图)和NOTAM(通知飞行员)以进行预试飞行.

METAR, TAF, VAC, NOTAM Gunnedah机场 (澳洲) / OACI YGDH/ IATA GUH

它位于附近 , Gunnedah 在 2.5 km, Curlewis 在 17 km, Carroll 在 18 km, Kelvin 在 18 km, Emerald Hill 在 18 km, Milroy 在 28 km, Keepit 在 29 km, Blair Athol 在 35 km, Boggabri 在 36 km, Somerton 在 36 km,

机场的高度为 Gunnedah机场的

263 m = 863 ft

跑道 Gunnedah机场的

附近的机场Gunnedah机场的

目前的天气 Gunnedah机场的 - YGDH

nuages fragmentés
11°C

Vent 15 km/h

可提供5天天气预报 Gunnedah 在 2.5 km, Curlewis 在 17 km, Carroll 在 18 km, Kelvin 在 18 km, Emerald Hill 在 18 km, Milroy 在 28 km, Keepit 在 29 km, Blair Athol 在 35 km, Boggabri 在 36 km, Somerton 在 36 km,

METAR Gunnedah机场的 - YGDH

METAR YGDH 210000Z AUTO 32007KT //// // ////// 13/07 Q1012 RMK RF00.0/000.0

Gunnedah机场METAR解码 (澳洲)

YGDH机场发行的METAR日期2020年08月21日至00:00 GMT. 这是一个自动生成的METAR, 警告:此METAR已过期, 已于 35 天 16 小时 37 分钟.

可见度为0 km = 0 sm.

温度为13°C = 55 °F 露点为7°C = 45 °F 。 这相当于67%的相对湿度。.

QNH是1012 hPa = 29.88 inHg

的风7 kt = 13 km/h, 风向为320°.

天空晴朗

备注 RF000/0000

TAF Gunnedah机场的 - YGDH

没有TAF

Gunnedah机场的NOTAM

提供的NOTAM不能保证其时事性。 在将其用于飞行准备或在飞行期间使用之前,飞行员是唯一负责验证其有效性的人员。

没有通知

数据源